createdAt,value
2023-04-11T00:00:06.038Z,8.02
2023-04-11T00:00:16.556Z,8.05
2023-04-11T00:00:27.053Z,8.05
2023-04-11T00:00:37.552Z,8.07
2023-04-11T00:00:48.077Z,8.05
2023-04-11T00:00:58.583Z,8.05
2023-04-11T00:01:09.093Z,8.05
2023-04-11T00:01:19.654Z,8.04
2023-04-11T00:01:30.125Z,8.05
2023-04-11T00:01:40.690Z,8.04
2023-04-11T00:01:51.191Z,8.02
2023-04-11T00:02:01.751Z,8.05
2023-04-11T00:02:12.232Z,8.02
2023-04-11T00:02:22.802Z,8.02
2023-04-11T00:02:33.257Z,8.04
2023-04-11T00:02:43.921Z,8.02
2023-04-11T00:02:54.383Z,8.02
2023-04-11T00:03:04.958Z,8.02
2023-04-11T00:03:15.428Z,8.02
2023-04-11T00:03:26.029Z,8.00
2023-04-11T00:03:36.423Z,8.02
2023-04-11T00:03:46.971Z,8.02
2023-04-11T00:03:57.556Z,8.02
2023-04-11T00:04:08.165Z,8.04
2023-04-11T00:04:18.342Z,8.04
2023-04-11T00:04:28.903Z,8.02
2023-04-11T00:04:39.616Z,8.02
2023-04-11T00:04:49.850Z,8.05
2023-04-11T00:05:00.445Z,8.04
2023-04-11T00:05:10.844Z,8.04
2023-04-11T00:05:21.347Z,8.04
2023-04-11T00:05:31.864Z,8.05
2023-04-11T00:05:42.373Z,8.07
2023-04-11T00:05:52.885Z,8.04
2023-04-11T00:06:03.391Z,8.05
2023-04-11T00:06:13.904Z,8.05
2023-04-11T00:06:24.411Z,8.05
2023-04-11T00:06:34.928Z,8.05
2023-04-11T00:06:45.456Z,8.05
2023-04-11T00:06:55.942Z,8.05
2023-04-11T00:07:06.451Z,8.04
2023-04-11T00:07:16.969Z,8.05
2023-04-11T00:07:27.488Z,8.05
2023-04-11T00:07:37.989Z,8.04
2023-04-11T00:07:48.495Z,8.04
2023-04-11T00:07:59.019Z,8.04
2023-04-11T00:08:09.529Z,8.04
2023-04-11T00:08:20.041Z,8.02
2023-04-11T00:08:30.681Z,8.02
2023-04-11T00:08:41.066Z,8.02
2023-04-11T00:08:51.573Z,8.00
2023-04-11T00:09:02.119Z,8.00
2023-04-11T00:09:12.608Z,8.00
2023-04-11T00:09:23.121Z,8.02
2023-04-11T00:09:33.617Z,8.02
2023-04-11T00:09:44.128Z,8.05
2023-04-11T00:09:54.651Z,8.04
2023-04-11T00:10:05.192Z,8.04
2023-04-11T00:10:15.661Z,8.07
2023-04-11T00:10:26.181Z,8.10
2023-04-11T00:10:36.687Z,8.10
2023-04-11T00:10:47.218Z,8.11
2023-04-11T00:10:57.722Z,8.11
2023-04-11T00:11:08.220Z,8.11
2023-04-11T00:11:18.732Z,8.12
2023-04-11T00:11:29.243Z,8.12
2023-04-11T00:11:39.781Z,8.15
2023-04-11T00:11:50.270Z,8.16
2023-04-11T00:12:00.787Z,8.18
2023-04-11T00:12:11.296Z,8.16
2023-04-11T00:12:21.805Z,8.16
2023-04-11T00:12:32.328Z,8.18
2023-04-11T00:12:42.839Z,8.16
2023-04-11T00:12:53.352Z,8.15
2023-04-11T00:13:03.858Z,8.12
2023-04-11T00:13:14.368Z,8.11
2023-04-11T00:13:24.890Z,8.10
2023-04-11T00:13:35.390Z,8.07
2023-04-11T00:13:45.939Z,8.07
2023-04-11T00:13:56.405Z,8.05
2023-04-11T00:14:06.919Z,8.04
2023-04-11T00:14:17.428Z,8.01
2023-04-11T00:14:27.937Z,8.04
2023-04-11T00:14:38.450Z,8.02
2023-04-11T00:14:49.091Z,8.02
2023-04-11T00:14:59.504Z,8.02
2023-04-11T00:15:10.002Z,8.02
2023-04-11T00:15:20.495Z,8.04
2023-04-11T00:15:31.000Z,8.02
2023-04-11T00:15:41.525Z,8.05
2023-04-11T00:15:52.061Z,8.05
2023-04-11T00:16:02.700Z,8.05
2023-04-11T00:16:13.081Z,8.05
2023-04-11T00:16:23.603Z,8.05
2023-04-11T00:16:34.131Z,8.07
2023-04-11T00:16:44.614Z,8.05
2023-04-11T00:16:55.114Z,8.07
2023-04-11T00:17:05.608Z,8.07
2023-04-11T00:17:16.116Z,8.05
2023-04-11T00:17:26.636Z,8.05
2023-04-11T00:17:37.192Z,8.07
2023-04-11T00:17:47.664Z,8.05
2023-04-11T00:17:58.203Z,8.07
2023-04-11T00:18:08.682Z,8.08
2023-04-11T00:18:19.182Z,8.08
2023-04-11T00:18:29.693Z,8.08
2023-04-11T00:18:40.200Z,8.08
2023-04-11T00:18:50.714Z,8.10
2023-04-11T00:19:01.222Z,8.08
2023-04-11T00:19:11.736Z,8.08
2023-04-11T00:19:22.443Z,8.07
2023-04-11T00:19:32.756Z,8.07
2023-04-11T00:19:43.265Z,8.07
2023-04-11T00:19:53.779Z,8.07
2023-04-11T00:20:04.292Z,8.07
2023-04-11T00:20:14.804Z,8.05
2023-04-11T00:20:25.345Z,8.04
2023-04-11T00:20:35.814Z,8.05
2023-04-11T00:20:46.334Z,8.05
2023-04-11T00:20:56.877Z,8.02
2023-04-11T00:21:07.351Z,8.02
2023-04-11T00:21:17.906Z,8.02
2023-04-11T00:21:28.365Z,8.04
2023-04-11T00:21:38.875Z,8.04
2023-04-11T00:21:49.390Z,8.02
2023-04-11T00:21:59.903Z,8.02
2023-04-11T00:22:10.407Z,8.02
2023-04-11T00:22:20.934Z,8.02
2023-04-11T00:22:31.428Z,8.02
2023-04-11T00:22:41.941Z,8.02
2023-04-11T00:22:52.448Z,8.01
2023-04-11T00:23:02.955Z,8.02
2023-04-11T00:23:13.478Z,8.01
2023-04-11T00:23:23.979Z,8.04
2023-04-11T00:23:34.513Z,8.02
2023-04-11T00:23:44.998Z,8.02
2023-04-11T00:23:55.508Z,8.04
2023-04-11T00:24:06.020Z,8.04
2023-04-11T00:24:16.532Z,8.02
2023-04-11T00:24:27.040Z,8.04
2023-04-11T00:24:37.555Z,8.04
2023-04-11T00:24:48.064Z,8.02
2023-04-11T00:24:58.572Z,8.02
2023-04-11T00:25:09.077Z,8.04
2023-04-11T00:25:19.622Z,8.01
2023-04-11T00:25:30.362Z,8.01
2023-04-11T00:25:40.608Z,8.00
2023-04-11T00:25:51.141Z,8.02
2023-04-11T00:26:01.632Z,8.02
2023-04-11T00:26:12.138Z,8.00
2023-04-11T00:26:22.653Z,8.00
2023-04-11T00:26:33.163Z,8.01
2023-04-11T00:26:43.672Z,8.01
2023-04-11T00:26:54.174Z,8.00
2023-04-11T00:27:04.689Z,7.98
2023-04-11T00:27:15.193Z,7.98
2023-04-11T00:27:25.733Z,8.00
2023-04-11T00:27:36.274Z,7.97
2023-04-11T00:27:46.729Z,7.97
2023-04-11T00:27:57.224Z,7.97
2023-04-11T00:28:07.738Z,7.97
2023-04-11T00:28:18.266Z,7.95
2023-04-11T00:28:28.781Z,7.97
2023-04-11T00:28:39.267Z,7.95
2023-04-11T00:28:49.780Z,7.95
2023-04-11T00:29:00.300Z,7.93
2023-04-11T00:29:10.794Z,7.93
2023-04-11T00:29:21.307Z,7.97
2023-04-11T00:29:31.829Z,7.95
2023-04-11T00:29:42.337Z,7.97
2023-04-11T00:29:52.853Z,7.95
2023-04-11T00:30:03.352Z,7.97
2023-04-11T00:30:13.865Z,7.97
2023-04-11T00:30:24.397Z,7.97
2023-04-11T00:30:35.238Z,7.97
2023-04-11T00:30:45.419Z,7.97
2023-04-11T00:30:55.902Z,7.95
2023-04-11T00:31:06.418Z,7.97
2023-04-11T00:31:17.000Z,7.95
2023-04-11T00:31:27.445Z,7.97
2023-04-11T00:31:37.982Z,7.97
2023-04-11T00:31:48.510Z,7.97
2023-04-11T00:31:59.025Z,7.95
2023-04-11T00:32:09.579Z,7.97
2023-04-11T00:32:19.988Z,7.95
2023-04-11T00:32:30.537Z,7.95
2023-04-11T00:32:41.079Z,7.95
2023-04-11T00:32:51.548Z,7.97
2023-04-11T00:33:02.314Z,7.98
2023-04-11T00:33:12.538Z,7.95
2023-04-11T00:33:23.046Z,7.95
2023-04-11T00:33:33.562Z,7.95
2023-04-11T00:33:44.076Z,7.95
2023-04-11T00:33:54.576Z,7.93
2023-04-11T00:34:05.113Z,7.92
2023-04-11T00:34:15.591Z,7.93
2023-04-11T00:34:26.104Z,7.92
2023-04-11T00:34:36.624Z,7.90
2023-04-11T00:34:47.150Z,7.92
2023-04-11T00:34:57.649Z,7.93
2023-04-11T00:35:08.161Z,7.90
2023-04-11T00:35:18.664Z,7.90
2023-04-11T00:35:29.169Z,7.89
2023-04-11T00:35:39.736Z,7.87
2023-04-11T00:35:50.264Z,7.86
2023-04-11T00:36:00.804Z,7.87
2023-04-11T00:36:11.261Z,7.86
2023-04-11T00:36:21.777Z,7.85
2023-04-11T00:36:32.349Z,7.85
2023-04-11T00:36:42.791Z,7.85
2023-04-11T00:36:53.340Z,7.86
2023-04-11T00:37:03.779Z,7.85
2023-04-11T00:37:14.306Z,7.85
2023-04-11T00:37:24.795Z,7.85
2023-04-11T00:37:35.300Z,7.83
2023-04-11T00:37:45.813Z,7.83
2023-04-11T00:37:56.440Z,7.85
2023-04-11T00:38:06.838Z,7.85
2023-04-11T00:38:17.365Z,7.85
2023-04-11T00:38:27.881Z,7.87
2023-04-11T00:38:38.391Z,7.87
2023-04-11T00:38:48.896Z,7.89
2023-04-11T00:38:59.388Z,7.87
2023-04-11T00:39:09.901Z,7.89
2023-04-11T00:39:20.415Z,7.89
2023-04-11T00:39:30.919Z,7.90
2023-04-11T00:39:41.429Z,7.90
2023-04-11T00:39:51.942Z,7.90
2023-04-11T00:40:02.465Z,7.92
2023-04-11T00:40:12.963Z,7.90
2023-04-11T00:40:23.478Z,7.90
2023-04-11T00:40:33.994Z,7.90
2023-04-11T00:40:44.500Z,7.92
2023-04-11T00:40:55.007Z,7.92
2023-04-11T00:41:05.524Z,7.92
2023-04-11T00:41:16.024Z,7.92
2023-04-11T00:41:26.540Z,7.93
2023-04-11T00:41:37.049Z,7.93
2023-04-11T00:41:47.556Z,7.93
2023-04-11T00:41:58.105Z,7.97
2023-04-11T00:42:08.666Z,7.95
2023-04-11T00:42:19.099Z,7.95
2023-04-11T00:42:29.612Z,7.95
2023-04-11T00:42:40.143Z,7.95
2023-04-11T00:42:50.621Z,7.97
2023-04-11T00:43:01.139Z,7.98
2023-04-11T00:43:11.657Z,8.00
2023-04-11T00:43:22.166Z,8.00
2023-04-11T00:43:32.667Z,7.98
2023-04-11T00:43:43.181Z,7.98
2023-04-11T00:43:53.687Z,7.98
2023-04-11T00:44:04.233Z,7.98
2023-04-11T00:44:14.702Z,7.97
2023-04-11T00:44:25.219Z,7.97
2023-04-11T00:44:35.728Z,7.97
2023-04-11T00:44:46.239Z,7.97
2023-04-11T00:44:56.757Z,7.98
2023-04-11T00:45:07.256Z,7.97
2023-04-11T00:45:17.763Z,7.97
2023-04-11T00:45:28.406Z,7.97
2023-04-11T00:45:38.809Z,7.98
2023-04-11T00:45:49.358Z,7.98
2023-04-11T00:45:59.815Z,7.98
2023-04-11T00:46:10.347Z,7.98
2023-04-11T00:46:20.872Z,7.98
2023-04-11T00:46:31.346Z,8.00
2023-04-11T00:46:41.960Z,7.98
2023-04-11T00:46:52.359Z,7.97
2023-04-11T00:47:02.866Z,8.00
2023-04-11T00:47:13.383Z,7.98
2023-04-11T00:47:23.905Z,7.98
2023-04-11T00:47:34.444Z,8.00
2023-04-11T00:47:44.973Z,8.00
2023-04-11T00:47:55.464Z,8.01
2023-04-11T00:48:05.973Z,8.00
2023-04-11T00:48:16.439Z,8.02
2023-04-11T00:48:26.946Z,8.01
2023-04-11T00:48:37.465Z,8.04
2023-04-11T00:48:47.997Z,8.04
2023-04-11T00:48:58.746Z,8.01
2023-04-11T00:49:08.991Z,8.02
2023-04-11T00:49:19.488Z,8.04
2023-04-11T00:49:30.033Z,8.04
2023-04-11T00:49:40.516Z,8.04
2023-04-11T00:49:51.026Z,8.04
2023-04-11T00:50:01.535Z,8.04
2023-04-11T00:50:12.054Z,8.02
2023-04-11T00:50:22.570Z,8.07
2023-04-11T00:50:33.071Z,8.05
2023-04-11T00:50:43.578Z,8.05
2023-04-11T00:50:54.088Z,8.04
2023-04-11T00:51:04.603Z,8.05
2023-04-11T00:51:15.103Z,8.04
2023-04-11T00:51:25.628Z,8.05
2023-04-11T00:51:36.133Z,8.04
2023-04-11T00:51:46.638Z,8.04
2023-04-11T00:51:57.153Z,8.05
2023-04-11T00:52:07.663Z,8.04
2023-04-11T00:52:18.172Z,8.04
2023-04-11T00:52:28.670Z,8.05
2023-04-11T00:52:39.209Z,8.04
2023-04-11T00:52:49.697Z,8.05
2023-04-11T00:53:00.215Z,8.02
2023-04-11T00:53:10.730Z,8.01
2023-04-11T00:53:21.257Z,8.04
2023-04-11T00:53:31.742Z,8.04
2023-04-11T00:53:42.292Z,8.02
2023-04-11T00:53:52.753Z,8.02
2023-04-11T00:54:03.273Z,8.05
2023-04-11T00:54:13.789Z,8.04
2023-04-11T00:54:24.287Z,8.05
2023-04-11T00:54:34.799Z,8.05
2023-04-11T00:54:45.337Z,8.05
2023-04-11T00:54:55.820Z,8.07
2023-04-11T00:55:06.388Z,8.07
2023-04-11T00:55:16.834Z,8.05
2023-04-11T00:55:27.347Z,8.07
2023-04-11T00:55:37.856Z,8.07
2023-04-11T00:55:48.376Z,8.07
2023-04-11T00:55:58.875Z,8.08
2023-04-11T00:56:09.392Z,8.10
2023-04-11T00:56:19.901Z,8.08
2023-04-11T00:56:30.407Z,8.10
2023-04-11T00:56:40.928Z,8.10
2023-04-11T00:56:51.433Z,8.10
2023-04-11T00:57:01.960Z,8.12
2023-04-11T00:57:12.459Z,8.11
2023-04-11T00:57:22.960Z,8.11
2023-04-11T00:57:33.480Z,8.11
2023-04-11T00:57:43.991Z,8.11
2023-04-11T00:57:54.516Z,8.11
2023-04-11T00:58:05.027Z,8.11
2023-04-11T00:58:15.529Z,8.12
2023-04-11T00:58:26.045Z,8.11
2023-04-11T00:58:36.559Z,8.12
2023-04-11T00:58:47.061Z,8.10
2023-04-11T00:58:57.729Z,8.12
2023-04-11T00:59:08.100Z,8.11
2023-04-11T00:59:18.605Z,8.11
2023-04-11T00:59:29.110Z,8.11
2023-04-11T00:59:39.628Z,8.12
2023-04-11T00:59:50.136Z,8.12
2023-04-11T01:00:00.653Z,8.12
2023-04-11T01:00:11.986Z,8.12
2023-04-11T01:00:21.669Z,8.15
2023-04-11T01:00:32.175Z,8.12
2023-04-11T01:00:42.686Z,8.11
2023-04-11T01:00:53.244Z,8.12
2023-04-11T01:01:03.772Z,8.11
2023-04-11T01:01:14.362Z,8.11
2023-04-11T01:01:25.506Z,8.12
2023-04-11T01:01:35.265Z,8.11
2023-04-11T01:01:45.977Z,8.11
2023-04-11T01:01:56.364Z,8.08
2023-04-11T01:02:06.866Z,8.10
2023-04-11T01:02:17.327Z,8.10
2023-04-11T01:02:27.999Z,8.10
2023-04-11T01:02:38.482Z,8.07
2023-04-11T01:02:48.895Z,8.08
2023-04-11T01:02:59.500Z,8.07
2023-04-11T01:03:09.885Z,8.07
2023-04-11T01:03:20.551Z,8.07
2023-04-11T01:03:31.040Z,8.05
2023-04-11T01:03:41.512Z,8.05
2023-04-11T01:03:51.963Z,8.05
2023-04-11T01:04:02.585Z,8.04
2023-04-11T01:04:13.012Z,8.04
2023-04-11T01:04:23.427Z,8.05
2023-04-11T01:04:33.943Z,8.04
2023-04-11T01:04:44.517Z,8.05
2023-04-11T01:04:54.963Z,8.04
2023-04-11T01:05:05.478Z,8.04
2023-04-11T01:05:16.012Z,8.04
2023-04-11T01:05:26.524Z,8.05
2023-04-11T01:05:37.022Z,8.07
2023-04-11T01:05:47.536Z,8.05
2023-04-11T01:05:58.031Z,8.05
2023-04-11T01:06:08.545Z,8.07
2023-04-11T01:06:19.066Z,8.07
2023-04-11T01:06:29.564Z,8.07
2023-04-11T01:06:40.086Z,8.07
2023-04-11T01:06:50.590Z,8.05
2023-04-11T01:07:01.101Z,8.07
2023-04-11T01:07:11.618Z,8.08
2023-04-11T01:07:22.121Z,8.07
2023-04-11T01:07:32.636Z,8.05
2023-04-11T01:07:43.133Z,8.05
2023-04-11T01:07:53.695Z,8.07
2023-04-11T01:08:04.172Z,8.05
2023-04-11T01:08:14.663Z,8.07
2023-04-11T01:08:25.183Z,8.05
2023-04-11T01:08:35.711Z,8.05
2023-04-11T01:08:46.224Z,8.04
2023-04-11T01:08:56.939Z,8.07
2023-04-11T01:09:07.221Z,8.07
2023-04-11T01:09:17.737Z,8.07
2023-04-11T01:09:28.247Z,8.04
2023-04-11T01:09:38.756Z,8.05
2023-04-11T01:09:49.262Z,8.04
2023-04-11T01:09:59.773Z,8.05
2023-04-11T01:10:10.280Z,8.05
2023-04-11T01:10:20.818Z,8.04
2023-04-11T01:10:31.314Z,8.04
2023-04-11T01:10:41.858Z,8.04
2023-04-11T01:10:52.336Z,8.04
2023-04-11T01:11:02.834Z,8.04
2023-04-11T01:11:13.355Z,8.04
2023-04-11T01:11:23.861Z,8.04
2023-04-11T01:11:34.372Z,8.02
2023-04-11T01:11:44.886Z,8.02
2023-04-11T01:11:55.392Z,8.02
2023-04-11T01:12:05.908Z,8.04
2023-04-11T01:12:16.416Z,8.04
2023-04-11T01:12:26.927Z,8.02
2023-04-11T01:12:37.432Z,8.02
2023-04-11T01:12:47.942Z,8.02
2023-04-11T01:12:58.458Z,8.02
2023-04-11T01:13:08.957Z,8.00
2023-04-11T01:13:19.478Z,8.01
2023-04-11T01:13:30.053Z,7.98
2023-04-11T01:13:40.493Z,7.98
2023-04-11T01:13:50.997Z,8.00
2023-04-11T01:14:01.524Z,7.98
2023-04-11T01:14:12.026Z,8.00
2023-04-11T01:14:22.558Z,8.01
2023-04-11T01:14:33.044Z,8.01
2023-04-11T01:14:43.572Z,8.00
2023-04-11T01:14:54.091Z,8.00
2023-04-11T01:15:04.595Z,8.00
2023-04-11T01:15:15.088Z,7.98
2023-04-11T01:15:25.616Z,8.00
2023-04-11T01:15:36.113Z,8.00
2023-04-11T01:15:46.627Z,8.00
2023-04-11T01:15:57.129Z,8.00
2023-04-11T01:16:07.684Z,8.01
2023-04-11T01:16:18.198Z,8.00
2023-04-11T01:16:28.692Z,8.01
2023-04-11T01:16:39.228Z,8.00
2023-04-11T01:16:49.720Z,8.01
2023-04-11T01:17:00.443Z,8.02
2023-04-11T01:17:10.717Z,8.01
2023-04-11T01:17:21.224Z,8.01
2023-04-11T01:17:31.741Z,8.04
2023-04-11T01:17:42.253Z,8.02
2023-04-11T01:17:52.874Z,8.04
2023-04-11T01:18:03.312Z,8.02
2023-04-11T01:18:13.776Z,8.04
2023-04-11T01:18:24.286Z,8.04
2023-04-11T01:18:34.809Z,8.04
2023-04-11T01:18:45.320Z,8.04
2023-04-11T01:18:56.021Z,8.02
2023-04-11T01:19:06.334Z,8.04
2023-04-11T01:19:16.844Z,8.02
2023-04-11T01:19:27.367Z,8.04
2023-04-11T01:19:37.865Z,8.02
2023-04-11T01:19:48.372Z,8.01
2023-04-11T01:19:58.909Z,8.00
2023-04-11T01:20:09.397Z,7.98
2023-04-11T01:20:19.907Z,8.00
2023-04-11T01:20:30.418Z,8.01
2023-04-11T01:20:40.935Z,8.00
2023-04-11T01:20:51.463Z,7.97
2023-04-11T01:21:01.959Z,8.01
2023-04-11T01:21:12.663Z,7.98
2023-04-11T01:21:22.975Z,8.01
2023-04-11T01:21:33.480Z,8.00
2023-04-11T01:21:44.015Z,7.98
2023-04-11T01:21:54.504Z,7.98
2023-04-11T01:22:05.018Z,7.97
2023-04-11T01:22:15.536Z,7.98
2023-04-11T01:22:26.044Z,7.97
2023-04-11T01:22:36.548Z,7.95
2023-04-11T01:22:47.064Z,7.93
2023-04-11T01:22:57.578Z,7.97
2023-04-11T01:23:08.086Z,7.95
2023-04-11T01:23:18.593Z,7.93
2023-04-11T01:23:29.116Z,7.95
2023-04-11T01:23:39.626Z,7.95
2023-04-11T01:23:50.154Z,7.93
2023-04-11T01:24:00.655Z,7.93
2023-04-11T01:24:11.158Z,7.93
2023-04-11T01:24:21.671Z,7.93
2023-04-11T01:24:32.186Z,7.93
2023-04-11T01:24:42.695Z,7.93
2023-04-11T01:24:53.212Z,7.95
2023-04-11T01:25:03.719Z,7.92
2023-04-11T01:25:14.249Z,7.93
2023-04-11T01:25:24.738Z,7.92
2023-04-11T01:25:35.261Z,7.93
2023-04-11T01:25:45.763Z,7.93
2023-04-11T01:25:56.283Z,7.92
2023-04-11T01:26:06.795Z,7.93
2023-04-11T01:26:17.297Z,7.92
2023-04-11T01:26:27.811Z,7.92
2023-04-11T01:26:38.327Z,7.92
2023-04-11T01:26:48.885Z,7.95
2023-04-11T01:26:59.360Z,7.92
2023-04-11T01:27:09.858Z,7.93
2023-04-11T01:27:20.367Z,7.95
2023-04-11T01:27:30.890Z,7.93
2023-04-11T01:27:41.391Z,7.93
2023-04-11T01:27:51.918Z,7.93
2023-04-11T01:28:02.423Z,7.93
2023-04-11T01:28:12.924Z,7.95
2023-04-11T01:28:23.452Z,7.95
2023-04-11T01:28:33.958Z,7.93
2023-04-11T01:28:44.465Z,7.93
2023-04-11T01:28:55.260Z,7.93
2023-04-11T01:29:05.496Z,7.95
2023-04-11T01:29:16.004Z,7.93
2023-04-11T01:29:26.537Z,7.93
2023-04-11T01:29:37.027Z,7.92
2023-04-11T01:29:47.531Z,7.90
2023-04-11T01:29:58.037Z,7.92
2023-04-11T01:30:08.559Z,7.90
2023-04-11T01:30:19.062Z,7.87
2023-04-11T01:30:29.609Z,7.89
2023-04-11T01:30:40.136Z,7.89
2023-04-11T01:30:50.623Z,7.87
2023-04-11T01:31:01.143Z,7.87
2023-04-11T01:31:11.641Z,7.90
2023-04-11T01:31:22.154Z,7.89
2023-04-11T01:31:32.640Z,7.87
2023-04-11T01:31:43.144Z,7.89
2023-04-11T01:31:53.669Z,7.87
2023-04-11T01:32:04.174Z,7.89
2023-04-11T01:32:14.679Z,7.87
2023-04-11T01:32:25.207Z,7.86
2023-04-11T01:32:35.738Z,7.89
2023-04-11T01:32:46.225Z,7.89
2023-04-11T01:32:56.745Z,7.92
2023-04-11T01:33:07.433Z,7.92
2023-04-11T01:33:17.753Z,7.95
2023-04-11T01:33:28.272Z,7.92
2023-04-11T01:33:38.769Z,7.92
2023-04-11T01:33:49.318Z,7.93
2023-04-11T01:33:59.796Z,7.93
2023-04-11T01:34:10.312Z,7.93
2023-04-11T01:34:20.824Z,7.93
2023-04-11T01:34:31.339Z,7.93
2023-04-11T01:34:41.854Z,7.93
2023-04-11T01:34:52.352Z,7.93
2023-04-11T01:35:02.862Z,7.93
2023-04-11T01:35:13.367Z,7.95
2023-04-11T01:35:23.917Z,7.97
2023-04-11T01:35:34.424Z,7.95
2023-04-11T01:35:44.930Z,7.95
2023-04-11T01:35:55.421Z,7.93
2023-04-11T01:36:05.966Z,7.92
2023-04-11T01:36:16.425Z,7.93
2023-04-11T01:36:26.959Z,7.93
2023-04-11T01:36:37.449Z,7.93
2023-04-11T01:36:47.972Z,7.92
2023-04-11T01:36:58.475Z,7.92
2023-04-11T01:37:08.982Z,7.92
2023-04-11T01:37:19.499Z,7.90
2023-04-11T01:37:30.015Z,7.92
2023-04-11T01:37:40.523Z,7.90
2023-04-11T01:37:51.042Z,7.90
2023-04-11T01:38:01.545Z,7.92
2023-04-11T01:38:12.063Z,7.92
2023-04-11T01:38:22.562Z,7.90
2023-04-11T01:38:33.067Z,7.90
2023-04-11T01:38:43.586Z,7.90
2023-04-11T01:38:54.373Z,7.89
2023-04-11T01:39:04.603Z,7.87
2023-04-11T01:39:15.114Z,7.87
2023-04-11T01:39:25.620Z,7.87
2023-04-11T01:39:36.134Z,7.89
2023-04-11T01:39:46.664Z,7.87
2023-04-11T01:39:57.152Z,7.87
2023-04-11T01:40:07.673Z,7.89
2023-04-11T01:40:18.181Z,7.87
2023-04-11T01:40:28.688Z,7.87
2023-04-11T01:40:39.200Z,7.87
2023-04-11T01:40:49.708Z,7.89
2023-04-11T01:41:00.219Z,7.89
2023-04-11T01:41:10.742Z,7.87
2023-04-11T01:41:21.254Z,7.89
2023-04-11T01:41:31.753Z,7.86
2023-04-11T01:41:42.274Z,7.89
2023-04-11T01:41:52.782Z,7.89
2023-04-11T01:42:03.294Z,7.89
2023-04-11T01:42:14.226Z,7.89
2023-04-11T01:42:24.317Z,7.87
2023-04-11T01:42:34.832Z,7.89
2023-04-11T01:42:45.369Z,7.89
2023-04-11T01:42:55.861Z,7.89
2023-04-11T01:43:06.367Z,7.87
2023-04-11T01:43:16.884Z,7.89
2023-04-11T01:43:27.379Z,7.87
2023-04-11T01:43:37.888Z,7.87
2023-04-11T01:43:48.400Z,7.89
2023-04-11T01:43:58.908Z,7.86
2023-04-11T01:44:09.425Z,7.87
2023-04-11T01:44:19.941Z,7.89
2023-04-11T01:44:30.441Z,7.87
2023-04-11T01:44:40.953Z,7.87
2023-04-11T01:44:51.484Z,7.87
2023-04-11T01:45:01.987Z,7.87
2023-04-11T01:45:12.485Z,7.89
2023-04-11T01:45:22.991Z,7.87
2023-04-11T01:45:33.500Z,7.86
2023-04-11T01:45:44.009Z,7.87
2023-04-11T01:45:54.524Z,7.86
2023-04-11T01:46:05.036Z,7.86
2023-04-11T01:46:15.546Z,7.86
2023-04-11T01:46:26.055Z,7.86
2023-04-11T01:46:36.587Z,7.85
2023-04-11T01:46:47.073Z,7.86
2023-04-11T01:46:57.588Z,7.83
2023-04-11T01:47:08.095Z,7.83
2023-04-11T01:47:18.608Z,7.85
2023-04-11T01:47:29.135Z,7.83
2023-04-11T01:47:39.730Z,7.85
2023-04-11T01:47:51.010Z,7.85
2023-04-11T01:48:00.686Z,7.85
2023-04-11T01:48:11.256Z,7.85
2023-04-11T01:48:21.806Z,7.83
2023-04-11T01:48:32.254Z,7.85
2023-04-11T01:48:42.762Z,7.85
2023-04-11T01:48:53.328Z,7.86
2023-04-11T01:49:03.774Z,7.85
2023-04-11T01:49:14.252Z,7.86
2023-04-11T01:49:24.758Z,7.85
2023-04-11T01:49:35.255Z,7.85
2023-04-11T01:49:45.764Z,7.85
2023-04-11T01:49:56.275Z,7.85
2023-04-11T01:50:06.792Z,7.83
2023-04-11T01:50:17.302Z,7.85
2023-04-11T01:50:27.854Z,7.83
2023-04-11T01:50:38.329Z,7.82
2023-04-11T01:50:48.833Z,7.83
2023-04-11T01:50:59.344Z,7.83
2023-04-11T01:51:09.851Z,7.82
2023-04-11T01:51:20.359Z,7.82
2023-04-11T01:51:30.869Z,7.80
2023-04-11T01:51:41.387Z,7.79
2023-04-11T01:51:51.913Z,7.80
2023-04-11T01:52:02.453Z,7.79
2023-04-11T01:52:12.927Z,7.79
2023-04-11T01:52:23.442Z,7.75
2023-04-11T01:52:33.947Z,7.77
2023-04-11T01:52:44.481Z,7.75
2023-04-11T01:52:54.969Z,7.75
2023-04-11T01:53:05.484Z,7.72
2023-04-11T01:53:15.998Z,7.74
2023-04-11T01:53:26.522Z,7.72
2023-04-11T01:53:37.035Z,7.72
2023-04-11T01:53:47.551Z,7.72
2023-04-11T01:53:58.075Z,7.72
2023-04-11T01:54:08.563Z,7.71
2023-04-11T01:54:19.090Z,7.71
2023-04-11T01:54:29.580Z,7.71
2023-04-11T01:54:40.082Z,7.69
2023-04-11T01:54:50.596Z,7.69
2023-04-11T01:55:01.146Z,7.68
2023-04-11T01:55:11.623Z,7.69
2023-04-11T01:55:22.140Z,7.69
2023-04-11T01:55:32.633Z,7.69
2023-04-11T01:55:43.173Z,7.71
2023-04-11T01:55:53.646Z,7.71
2023-04-11T01:56:04.159Z,7.72
2023-04-11T01:56:14.688Z,7.69
2023-04-11T01:56:25.186Z,7.69
2023-04-11T01:56:35.698Z,7.71
2023-04-11T01:56:46.208Z,7.71
2023-04-11T01:56:56.726Z,7.71
2023-04-11T01:57:07.227Z,7.71
2023-04-11T01:57:17.740Z,7.71
2023-04-11T01:57:28.249Z,7.71
2023-04-11T01:57:38.774Z,7.71
2023-04-11T01:57:49.288Z,7.72
2023-04-11T01:57:59.791Z,7.72
2023-04-11T01:58:10.300Z,7.72
2023-04-11T01:58:20.807Z,7.71
2023-04-11T01:58:31.344Z,7.71
2023-04-11T01:58:41.839Z,7.72
2023-04-11T01:58:52.354Z,7.71
2023-04-11T01:59:02.848Z,7.72
2023-04-11T01:59:13.364Z,7.71
2023-04-11T01:59:23.889Z,7.74
2023-04-11T01:59:34.403Z,7.75
2023-04-11T01:59:44.894Z,7.72
2023-04-11T01:59:55.405Z,7.74
2023-04-11T02:00:05.927Z,7.72
2023-04-11T02:00:16.437Z,7.72
2023-04-11T02:00:26.944Z,7.74
2023-04-11T02:00:37.446Z,7.74
2023-04-11T02:00:47.963Z,7.74
2023-04-11T02:00:58.466Z,7.72
2023-04-11T02:01:09.052Z,7.74
2023-04-11T02:01:19.515Z,7.74
2023-04-11T02:01:30.077Z,7.74
2023-04-11T02:01:40.593Z,7.74
2023-04-11T02:01:51.110Z,7.72
2023-04-11T02:02:01.661Z,7.72
2023-04-11T02:02:12.239Z,7.72
2023-04-11T02:02:22.731Z,7.72
2023-04-11T02:02:33.140Z,7.72
2023-04-11T02:02:43.637Z,7.71
2023-04-11T02:02:54.201Z,7.71
2023-04-11T02:03:04.839Z,7.71
2023-04-11T02:03:15.201Z,7.71
2023-04-11T02:03:25.791Z,7.71
2023-04-11T02:03:36.136Z,7.71
2023-04-11T02:03:46.719Z,7.68
2023-04-11T02:03:57.202Z,7.68
2023-04-11T02:04:07.750Z,7.69
2023-04-11T02:04:18.295Z,7.67
2023-04-11T02:04:28.775Z,7.68
2023-04-11T02:04:39.172Z,7.64
2023-04-11T02:04:49.679Z,7.68
2023-04-11T02:05:00.196Z,7.67
2023-04-11T02:05:10.689Z,7.67
2023-04-11T02:05:21.200Z,7.64
2023-04-11T02:05:31.711Z,7.64
2023-04-11T02:05:42.224Z,7.67
2023-04-11T02:05:52.736Z,7.64
2023-04-11T02:06:03.265Z,7.64
2023-04-11T02:06:13.779Z,7.64
2023-04-11T02:06:24.273Z,7.64
2023-04-11T02:06:34.786Z,7.63
2023-04-11T02:06:45.293Z,7.63
2023-04-11T02:06:55.804Z,7.64
2023-04-11T02:07:06.312Z,7.63
2023-04-11T02:07:16.821Z,7.64
2023-04-11T02:07:27.340Z,7.63
2023-04-11T02:07:37.848Z,7.63
2023-04-11T02:07:48.356Z,7.64
2023-04-11T02:07:58.861Z,7.64
2023-04-11T02:08:09.375Z,7.63
2023-04-11T02:08:19.882Z,7.64
2023-04-11T02:08:30.391Z,7.67
2023-04-11T02:08:40.903Z,7.64
2023-04-11T02:08:51.535Z,7.67
2023-04-11T02:09:01.986Z,7.64
2023-04-11T02:09:12.431Z,7.63
2023-04-11T02:09:22.946Z,7.63
2023-04-11T02:09:33.480Z,7.64
2023-04-11T02:09:43.957Z,7.64
2023-04-11T02:09:54.480Z,7.67
2023-04-11T02:10:04.990Z,7.64
2023-04-11T02:10:15.496Z,7.67
2023-04-11T02:10:26.018Z,7.64
2023-04-11T02:10:36.513Z,7.63
2023-04-11T02:10:47.034Z,7.63
2023-04-11T02:10:57.579Z,7.64
2023-04-11T02:11:08.054Z,7.64
2023-04-11T02:11:18.568Z,7.64
2023-04-11T02:11:29.867Z,7.64
2023-04-11T02:11:39.587Z,7.63
2023-04-11T02:11:50.103Z,7.63
2023-04-11T02:12:00.619Z,7.63
2023-04-11T02:12:11.124Z,7.64
2023-04-11T02:12:21.638Z,7.63
2023-04-11T02:12:32.157Z,7.61
2023-04-11T02:12:42.647Z,7.63
2023-04-11T02:12:53.182Z,7.61
2023-04-11T02:13:03.772Z,7.63
2023-04-11T02:13:14.179Z,7.61
2023-04-11T02:13:24.694Z,7.61
2023-04-11T02:13:35.209Z,7.61
2023-04-11T02:13:45.722Z,7.61
2023-04-11T02:13:56.220Z,7.61
2023-04-11T02:14:06.730Z,7.60
2023-04-11T02:14:17.243Z,7.60
2023-04-11T02:14:27.748Z,7.60
2023-04-11T02:14:38.693Z,7.58
2023-04-11T02:14:48.780Z,7.58
2023-04-11T02:14:59.309Z,7.57
2023-04-11T02:15:09.788Z,7.57
2023-04-11T02:15:20.298Z,7.57
2023-04-11T02:15:30.813Z,7.57
2023-04-11T02:15:41.368Z,7.57
2023-04-11T02:15:51.884Z,7.57
2023-04-11T02:16:02.362Z,7.55
2023-04-11T02:16:12.907Z,7.55
2023-04-11T02:16:23.439Z,7.57
2023-04-11T02:16:33.887Z,7.57
2023-04-11T02:16:44.394Z,7.57
2023-04-11T02:16:54.914Z,7.55
2023-04-11T02:17:05.682Z,7.57
2023-04-11T02:17:15.912Z,7.57
2023-04-11T02:17:26.476Z,7.58
2023-04-11T02:17:37.047Z,7.57
2023-04-11T02:17:58.007Z,7.57
2023-04-11T02:18:08.527Z,7.57
2023-04-11T02:18:18.984Z,7.55
2023-04-11T02:18:29.484Z,7.52
2023-04-11T02:18:39.989Z,7.53
2023-04-11T02:18:50.504Z,7.55
2023-04-11T02:19:01.012Z,7.53
2023-04-11T02:19:11.530Z,7.53
2023-04-11T02:19:22.038Z,7.55
2023-04-11T02:19:32.650Z,7.53
2023-04-11T02:19:43.065Z,7.55
2023-04-11T02:19:53.581Z,7.53
2023-04-11T02:20:04.088Z,7.53